Time;durP1;ratioP1;P1;durP2;ratioP2;P2;SDS_P1;SDS_P2;PMS_P1;PMS_P2;Temp;Humidity;BMP_temperature;BMP_pressure;BME280_temperature;BME280_humidity;BME280_pressure;Samples;Min_cycle;Max_cycle;Signal;HPM_P1;HPM_P2
2022/11/29 00:02:25;;;;;;;17.10;8.75;;;11.50;66.20;;;;;;6094914;29;20036;-79
2022/11/29 00:05:26;;;;;;;25.50;9.63;;;11.50;66.10;;;;;;6089370;29;20163;-80
2022/11/29 00:08:28;;;;;;;24.40;10.63;;;11.50;66.20;;;;;;6103707;29;20032;-80
2022/11/29 00:14:53;;;;;;;19.92;8.15;;;11.40;66.40;;;;;;6093219;29;20132;-80
2022/11/29 00:17:53;;;;;;;16.45;8.30;;;11.40;66.50;;;;;;6087244;29;20307;-80
2022/11/29 00:20:54;;;;;;;17.67;8.32;;;11.40;66.50;;;;;;6083479;29;20044;-80
2022/11/29 00:23:55;;;;;;;25.13;8.57;;;11.40;66.40;;;;;;6099953;29;20055;-79
2022/11/29 00:26:56;;;;;;;25.20;8.70;;;11.40;66.40;;;;;;6104014;29;20045;-79
2022/11/29 00:29:57;;;;;;;21.98;9.27;;;11.30;66.40;;;;;;6089466;29;20032;-80
2022/11/29 00:32:57;;;;;;;18.73;8.63;;;11.30;66.60;;;;;;6094784;29;20036;-80
2022/11/29 00:36:00;;;;;;;26.00;9.05;;;11.30;66.70;;;;;;6090862;29;20099;-80
2022/11/29 00:39:03;;;;;;;24.52;10.40;;;11.30;66.80;;;;;;6087687;29;20042;-80
2022/11/29 00:42:03;;;;;;;27.48;10.10;;;11.20;66.80;;;;;;6080704;29;20043;-80
2022/11/29 00:45:05;;;;;;;19.50;10.07;;;11.20;66.80;;;;;;6091954;29;20033;-80
2022/11/29 00:48:06;;;;;;;22.95;10.35;;;11.20;66.90;;;;;;6095962;29;20467;-80
2022/11/29 00:51:07;;;;;;;24.23;9.85;;;11.20;66.90;;;;;;6077570;29;20055;-80
2022/11/29 00:54:08;;;;;;;24.48;9.65;;;11.20;66.90;;;;;;6101866;29;20493;-80
2022/11/29 00:57:09;;;;;;;17.13;8.52;;;11.20;67.00;;;;;;6095225;29;20047;-80
2022/11/29 01:00:10;;;;;;;23.48;9.05;;;11.20;67.00;;;;;;6101161;29;20036;-78
2022/11/29 01:03:12;;;;;;;20.10;8.40;;;11.20;67.10;;;;;;6099016;29;20056;-80
2022/11/29 01:06:15;;;;;;;19.15;8.55;;;11.30;67.10;;;;;;6102630;29;20134;-80
2022/11/29 01:09:16;;;;;;;19.35;7.70;;;11.20;67.00;;;;;;6090520;29;20052;-79
2022/11/29 01:12:17;;;;;;;17.77;7.65;;;11.20;67.00;;;;;;6106165;29;20087;-80
2022/11/29 01:15:18;;;;;;;15.98;8.30;;;11.20;67.00;;;;;;6088735;29;20033;-79
2022/11/29 01:18:19;;;;;;;22.83;8.75;;;11.20;67.00;;;;;;6093054;29;20060;-79
2022/11/29 01:21:22;;;;;;;18.13;8.10;;;11.20;67.10;;;;;;6091726;29;20040;-80
2022/11/29 01:24:23;;;;;;;15.30;7.15;;;11.20;67.10;;;;;;6097353;29;20052;-81
2022/11/29 01:27:24;;;;;;;15.75;8.07;;;11.20;67.10;;;;;;6094557;29;20459;-80
2022/11/29 01:30:25;;;;;;;17.35;8.32;;;11.10;66.80;;;;;;6114959;29;20040;-80
2022/11/29 01:33:26;;;;;;;14.75;8.00;;;11.10;66.90;;;;;;6098342;29;20135;-80
2022/11/29 01:36:29;;;;;;;15.55;8.48;;;11.10;67.10;;;;;;6109069;29;20059;-80
2022/11/29 01:39:29;;;;;;;19.45;9.43;;;11.00;67.00;;;;;;6100835;29;20092;-80
2022/11/29 01:42:30;;;;;;;17.90;7.95;;;11.00;67.00;;;;;;6098065;29;20289;-80
2022/11/29 01:45:36;;;;;;;21.00;8.82;;;11.00;67.10;;;;;;6077530;29;20723;-80
2022/11/29 01:48:37;;;;;;;16.90;8.23;;;11.00;67.10;;;;;;6089098;29;20407;-80
2022/11/29 01:51:43;;;;;;;20.15;7.85;;;10.90;67.00;;;;;;6103013;29;20124;-79
2022/11/29 01:54:49;;;;;;;17.98;8.18;;;10.90;67.10;;;;;;6087958;29;20039;-79
2022/11/29 01:57:50;;;;;;;17.50;8.52;;;10.90;67.10;;;;;;6091382;29;20043;-81
2022/11/29 02:00:51;;;;;;;18.77;8.20;;;10.90;67.10;;;;;;6099346;29;20060;-80
2022/11/29 02:03:52;;;;;;;15.07;7.13;;;10.90;67.10;;;;;;6094656;29;20040;-81
2022/11/29 02:06:53;;;;;;;13.00;6.53;;;10.80;67.20;;;;;;6085741;29;20039;-80
2022/11/29 02:09:54;;;;;;;16.10;7.78;;;10.70;67.40;;;;;;6082432;29;20040;-79
2022/11/29 02:13:12;;;;;;;21.02;7.70;;;10.70;67.50;;;;;;6091684;29;20032;-79
2022/11/29 02:16:37;;;;;;;18.45;7.80;;;10.70;68.00;;;;;;6081796;29;20069;-81
2022/11/29 02:19:52;;;;;;;15.13;7.47;;;10.70;67.80;;;;;;6085926;29;20410;-80
2022/11/29 02:23:04;;;;;;;19.48;9.32;;;10.70;67.90;;;;;;6091703;29;20062;-80
2022/11/29 02:26:28;;;;;;;12.60;6.75;;;10.70;67.80;;;;;;6103368;29;20040;-81
2022/11/29 02:29:53;;;;;;;16.55;7.45;;;10.70;67.80;;;;;;6085052;29;20493;-80
2022/11/29 02:33:10;;;;;;;16.38;7.80;;;10.80;67.80;;;;;;6099492;29;20040;-80
2022/11/29 02:36:30;;;;;;;14.68;7.53;;;10.80;67.80;;;;;;6074626;29;20055;-80
2022/11/29 02:40:05;;;;;;;15.93;7.40;;;10.80;67.70;;;;;;6093401;29;20488;-81
2022/11/29 02:43:27;;;;;;;20.38;7.80;;;10.80;67.80;;;;;;6087457;29;20040;-80
2022/11/29 02:46:50;;;;;;;15.73;7.97;;;10.90;67.90;;;;;;6088737;29;20463;-80
2022/11/29 02:50:28;;;;;;;18.02;8.95;;;10.90;67.80;;;;;;6090880;29;20469;-80
2022/11/29 02:53:41;;;;;;;19.38;8.63;;;10.90;67.80;;;;;;6081248;29;20063;-80
2022/11/29 02:57:24;;;;;;;20.15;9.52;;;11.00;68.00;;;;;;6065878;29;20346;-81
2022/11/29 03:00:25;;;;;;;16.88;9.50;;;10.90;68.00;;;;;;6082989;29;20052;-81
2022/11/29 03:03:47;;;;;;;21.98;9.65;;;10.90;67.90;;;;;;6090781;29;20108;-80
2022/11/29 03:07:06;;;;;;;19.67;8.70;;;11.00;68.10;;;;;;6081513;29;20048;-79
2022/11/29 03:10:54;;;;;;;18.27;9.02;;;11.00;68.10;;;;;;6067133;29;20074;-79
2022/11/29 03:14:00;;;;;;;25.30;9.40;;;11.00;68.10;;;;;;5978501;29;20068;-80
2022/11/29 03:17:06;;;;;;;17.67;8.70;;;11.00;68.60;;;;;;5999984;29;20057;-80
2022/11/29 03:20:31;;;;;;;19.77;8.80;;;11.00;68.30;;;;;;6001108;29;20049;-81
2022/11/29 03:23:38;;;;;;;20.25;8.32;;;11.10;68.30;;;;;;6011113;29;20045;-80
2022/11/29 03:26:50;;;;;;;22.42;8.85;;;11.10;68.30;;;;;;6000555;29;20137;-80
2022/11/29 03:30:00;;;;;;;19.38;9.10;;;11.10;68.20;;;;;;5979792;29;20089;-78
2022/11/29 03:33:29;;;;;;;17.02;8.13;;;11.20;68.20;;;;;;5977319;29;20469;-79
2022/11/29 03:36:36;;;;;;;17.63;7.60;;;11.20;68.30;;;;;;5971168;29;20102;-80
2022/11/29 03:39:43;;;;;;;16.17;6.60;;;11.10;68.20;;;;;;5971411;29;20130;-81
2022/11/29 03:42:54;;;;;;;13.98;6.95;;;11.10;68.20;;;;;;5967133;29;20503;-80
2022/11/29 03:46:03;;;;;;;15.43;7.10;;;11.10;68.20;;;;;;5970790;29;20378;-79
2022/11/29 03:49:22;;;;;;;14.63;6.78;;;11.10;68.20;;;;;;6005075;29;20513;-80
2022/11/29 03:52:45;;;;;;;16.23;6.65;;;11.10;68.30;;;;;;6094196;29;20040;-79
2022/11/29 03:55:56;;;;;;;14.48;7.28;;;11.10;68.20;;;;;;6101754;29;20047;-80
2022/11/29 03:59:06;;;;;;;13.75;7.70;;;11.10;68.10;;;;;;6108756;29;20040;-80
2022/11/29 04:02:28;;;;;;;12.02;6.80;;;11.10;68.10;;;;;;6084732;29;20115;-80
2022/11/29 04:05:32;;;;;;;10.55;5.13;;;11.10;68.20;;;;;;6076653;29;20047;-80
2022/11/29 04:08:51;;;;;;;13.73;6.30;;;11.10;68.30;;;;;;6076717;29;20032;-80
2022/11/29 04:12:11;;;;;;;15.27;6.55;;;11.10;68.30;;;;;;6104213;29;20370;-79
2022/11/29 04:15:33;;;;;;;8.27;3.58;;;11.10;68.20;;;;;;6086948;29;20028;-79
2022/11/29 04:19:05;;;;;;;9.52;4.20;;;11.10;67.90;;;;;;6084098;29;20411;-80
2022/11/29 04:22:23;;;;;;;11.18;6.07;;;11.10;67.70;;;;;;6101923;29;20055;-80
2022/11/29 04:25:34;;;;;;;5.80;3.80;;;11.10;67.60;;;;;;6107407;29;20060;-80
2022/11/29 04:29:01;;;;;;;15.10;6.75;;;11.10;67.40;;;;;;6097487;29;20048;-80
2022/11/29 04:32:12;;;;;;;13.95;7.93;;;11.10;67.40;;;;;;6093961;29;20044;-80
2022/11/29 04:35:50;;;;;;;15.65;8.25;;;11.10;67.40;;;;;;6081733;29;20052;-80
2022/11/29 04:38:54;;;;;;;16.65;8.27;;;11.10;67.50;;;;;;6097997;29;20044;-79
2022/11/29 04:42:32;;;;;;;11.25;5.32;;;11.10;67.50;;;;;;6093651;28;20461;-80
2022/11/29 04:45:32;;;;;;;15.98;6.82;;;11.10;67.50;;;;;;6084258;29;20078;-79
2022/11/29 04:48:52;;;;;;;21.50;8.00;;;11.10;67.30;;;;;;6085534;29;20115;-79
2022/11/29 04:52:23;;;;;;;9.13;4.78;;;11.10;67.30;;;;;;6071927;29;20036;-79
2022/11/29 04:56:01;;;;;;;11.07;5.63;;;11.10;67.30;;;;;;6089750;29;20040;-79
2022/11/29 04:59:19;;;;;;;11.50;5.82;;;11.10;67.20;;;;;;6105471;29;20043;-80
2022/11/29 05:02:38;;;;;;;6.15;3.25;;;11.10;67.10;;;;;;6095732;29;20112;-79
2022/11/29 05:06:08;;;;;;;2.05;1.50;;;11.10;66.90;;;;;;6103721;29;20036;-80
2022/11/29 05:09:26;;;;;;;3.35;1.75;;;11.10;66.70;;;;;;6052396;29;20087;-80
2022/11/29 05:13:04;;;;;;;1.73;1.30;;;11.10;66.50;;;;;;6041655;29;20177;-79
2022/11/29 05:16:24;;;;;;;3.23;1.17;;;11.10;66.40;;;;;;5943002;29;20047;-79
2022/11/29 05:19:48;;;;;;;2.45;1.63;;;11.00;66.20;;;;;;5942249;29;20077;-79
2022/11/29 05:23:23;;;;;;;1.98;1.00;;;11.00;66.20;;;;;;5951682;29;20078;-77
2022/11/29 05:26:28;;;;;;;1.45;0.82;;;10.80;66.10;;;;;;5949946;29;20055;-79
2022/11/29 05:30:20;;;;;;;3.05;0.77;;;10.70;66.30;;;;;;5955177;29;20042;-79
2022/11/29 05:33:51;;;;;;;0.57;0.50;;;10.70;66.40;;;;;;5889560;30;20134;-79
2022/11/29 05:37:12;;;;;;;0.60;0.50;;;10.60;66.40;;;;;;5875736;30;20044;-80
2022/11/29 05:40:25;;;;;;;1.83;1.10;;;10.50;66.30;;;;;;5889485;30;20055;-79
2022/11/29 05:43:41;;;;;;;0.52;0.52;;;10.50;66.40;;;;;;5888869;30;20048;-80
2022/11/29 05:46:57;;;;;;;0.77;0.52;;;10.40;66.40;;;;;;5906036;30;20031;-81
2022/11/29 05:50:17;;;;;;;0.43;0.43;;;10.40;66.30;;;;;;5938926;29;20057;-80
2022/11/29 05:53:24;;;;;;;0.63;0.40;;;10.40;66.00;;;;;;5980014;29;20042;-80
2022/11/29 05:56:52;;;;;;;0.30;0.30;;;10.40;65.50;;;;;;5997324;29;20077;-80
2022/11/29 05:59:55;;;;;;;0.95;0.30;;;10.40;65.20;;;;;;5992168;29;20381;-78
2022/11/29 06:03:02;;;;;;;1.10;0.45;;;10.40;65.10;;;;;;5998155;29;20080;-80
2022/11/29 06:06:27;;;;;;;0.52;0.28;;;10.30;65.00;;;;;;6020051;29;20029;-80
2022/11/29 06:09:39;;;;;;;0.60;0.50;;;10.30;64.90;;;;;;6100907;29;20040;-80
2022/11/29 06:12:44;;;;;;;0.40;0.30;;;10.30;65.10;;;;;;6095160;29;20072;-81
2022/11/29 06:16:06;;;;;;;0.25;0.25;;;10.30;65.00;;;;;;6085500;29;20119;-80
2022/11/29 06:19:29;;;;;;;1.23;0.50;;;10.30;65.10;;;;;;6105277;29;20071;-79
2022/11/29 06:23:00;;;;;;;0.65;0.30;;;10.30;65.00;;;;;;6089109;29;20052;-80
2022/11/29 06:26:28;;;;;;;0.68;0.30;;;10.30;64.80;;;;;;6091034;29;20055;-79
2022/11/29 06:29:43;;;;;;;1.27;0.50;;;10.30;64.50;;;;;;6095421;29;20040;-79
2022/11/29 06:32:59;;;;;;;0.70;0.28;;;10.30;64.50;;;;;;6094141;29;20036;-79
2022/11/29 06:36:09;;;;;;;0.10;0.10;;;10.30;64.30;;;;;;6086757;29;20055;-79
2022/11/29 06:39:10;;;;;;;0.20;0.20;;;10.30;63.90;;;;;;6105622;29;20059;-79
2022/11/29 06:42:11;;;;;;;0.55;0.35;;;10.30;63.70;;;;;;6088535;29;20032;-80
2022/11/29 06:45:13;;;;;;;0.43;0.30;;;10.40;63.60;;;;;;6091504;29;20048;-79
2022/11/29 06:48:22;;;;;;;0.10;0.10;;;10.40;63.50;;;;;;6083951;29;20592;-79
2022/11/29 06:51:29;;;;;;;0.10;0.10;;;10.40;63.40;;;;;;6085521;29;20041;-80
2022/11/29 06:54:38;;;;;;;0.55;0.20;;;10.40;63.10;;;;;;6102560;29;20032;-80
2022/11/29 06:58:01;;;;;;;0.65;0.22;;;10.50;63.10;;;;;;6092820;29;20534;-80
2022/11/29 07:01:12;;;;;;;0.70;0.45;;;10.40;63.00;;;;;;6101353;29;20068;-81
2022/11/29 07:04:19;;;;;;;4.68;0.25;;;10.50;62.90;;;;;;6094865;29;20048;-81
2022/11/29 07:07:22;;;;;;;0.43;0.40;;;10.50;62.80;;;;;;6106880;29;20063;-81
2022/11/29 07:10:23;;;;;;;0.32;0.25;;;10.50;62.70;;;;;;6090991;29;20617;-81
2022/11/29 07:13:24;;;;;;;0.10;0.10;;;10.50;62.70;;;;;;6103949;29;20040;-81
2022/11/29 07:17:07;;;;;;;0.10;0.10;;;10.60;62.50;;;;;;6088658;29;20104;-81
2022/11/29 07:20:41;;;;;;;0.10;0.10;;;10.50;62.40;;;;;;6075416;29;20036;-81
2022/11/29 07:23:52;;;;;;;0.20;0.20;;;10.50;62.30;;;;;;6089849;29;20381;-80
2022/11/29 07:27:22;;;;;;;0.32;0.22;;;10.50;62.30;;;;;;6104308;29;20052;-79
2022/11/29 07:30:51;;;;;;;0.15;0.13;;;10.60;62.20;;;;;;6107728;29;20190;-80
2022/11/29 07:34:10;;;;;;;0.38;0.38;;;10.60;62.10;;;;;;6107211;29;20178;-80
2022/11/29 07:37:22;;;;;;;0.05;0.05;;;10.60;62.00;;;;;;6118661;29;20650;-79
2022/11/29 07:40:51;;;;;;;1.55;0.20;;;10.60;61.90;;;;;;6117756;29;20501;-79
2022/11/29 07:44:01;;;;;;;0.28;0.28;;;10.60;61.90;;;;;;6106087;29;20445;-79
2022/11/29 07:47:02;;;;;;;0.80;0.20;;;10.60;61.80;;;;;;6110815;29;20032;-80
2022/11/29 07:50:03;;;;;;;0.60;0.32;;;10.60;61.80;;;;;;6116877;29;20434;-82
2022/11/29 07:53:04;;;;;;;5.82;0.65;;;10.50;61.90;;;;;;6103475;29;20040;-80
2022/11/29 07:56:05;;;;;;;0.40;0.20;;;10.50;61.90;;;;;;6112216;29;20106;-79
2022/11/29 07:59:11;;;;;;;1.17;0.60;;;10.40;61.90;;;;;;6102971;29;20450;-80
2022/11/29 08:02:12;;;;;;;1.58;0.60;;;10.40;62.00;;;;;;6118403;29;20071;-80
2022/11/29 08:05:13;;;;;;;0.28;0.28;;;10.40;62.10;;;;;;6120146;29;20469;-80
2022/11/29 08:08:14;;;;;;;0.20;0.20;;;10.40;62.30;;;;;;6085688;29;20051;-81
2022/11/29 08:11:15;;;;;;;0.75;0.43;;;10.30;62.50;;;;;;6097691;29;20044;-80
2022/11/29 08:14:17;;;;;;;0.60;0.35;;;10.30;62.70;;;;;;6090745;29;20052;-79
2022/11/29 08:17:17;;;;;;;0.20;0.20;;;10.30;62.80;;;;;;6076810;29;20048;-79
2022/11/29 08:20:18;;;;;;;0.63;0.15;;;10.30;62.80;;;;;;6104159;29;20092;-80
2022/11/29 08:23:19;;;;;;;0.80;0.38;;;10.40;62.80;;;;;;6076945;29;20056;-79
2022/11/29 08:26:20;;;;;;;0.68;0.30;;;10.40;62.70;;;;;;6110986;29;20056;-79
2022/11/29 08:29:22;;;;;;;1.75;0.50;;;10.50;62.70;;;;;;6079538;28;20048;-81
2022/11/29 08:32:23;;;;;;;0.22;0.20;;;10.50;62.70;;;;;;6104530;29;20040;-79
2022/11/29 08:35:24;;;;;;;3.97;0.50;;;10.60;62.50;;;;;;6087143;29;20053;-79
2022/11/29 08:38:25;;;;;;;0.30;0.30;;;10.70;62.40;;;;;;6085625;29;20115;-79
2022/11/29 08:41:26;;;;;;;0.20;0.20;;;10.80;62.30;;;;;;6088458;29;20502;-80
2022/11/29 08:44:27;;;;;;;0.28;0.28;;;10.90;62.10;;;;;;6065187;29;20037;-80
2022/11/29 08:47:37;;;;;;;1.33;0.40;;;10.90;61.90;;;;;;6084282;29;20035;-81
2022/11/29 08:50:38;;;;;;;0.82;0.30;;;11.00;61.60;;;;;;6090685;29;20080;-79
2022/11/29 08:53:42;;;;;;;0.65;0.43;;;11.10;61.30;;;;;;6101549;29;20064;-80
2022/11/29 08:56:43;;;;;;;0.85;0.30;;;11.20;60.90;;;;;;6090718;29;20063;-78
2022/11/29 08:59:44;;;;;;;0.68;0.30;;;11.20;60.90;;;;;;6091283;29;20037;-80
2022/11/29 09:02:45;;;;;;;0.30;0.30;;;11.20;60.70;;;;;;6096989;29;20092;-80
2022/11/29 09:05:46;;;;;;;1.55;0.50;;;11.20;60.70;;;;;;6110042;29;20036;-80
2022/11/29 09:08:47;;;;;;;1.20;0.47;;;11.20;60.60;;;;;;6088105;29;20052;-80
2022/11/29 09:11:48;;;;;;;0.35;0.35;;;11.20;60.50;;;;;;6095393;29;20090;-80
2022/11/29 09:14:49;;;;;;;0.50;0.35;;;11.20;60.50;;;;;;6078987;29;20036;-80
2022/11/29 09:17:49;;;;;;;0.50;0.40;;;11.20;60.60;;;;;;6084533;29;20379;-80
2022/11/29 09:20:51;;;;;;;1.10;0.40;;;11.20;60.40;;;;;;6086382;29;20040;-80
2022/11/29 09:23:57;;;;;;;0.35;0.30;;;11.20;60.40;;;;;;6107441;29;20055;-79
2022/11/29 09:26:58;;;;;;;0.30;0.22;;;11.20;60.50;;;;;;6089749;29;20063;-80
2022/11/29 09:29:59;;;;;;;0.52;0.30;;;11.20;60.60;;;;;;6082232;29;20355;-80
2022/11/29 09:33:01;;;;;;;0.40;0.35;;;11.20;60.50;;;;;;6080728;29;20123;-80
2022/11/29 09:36:03;;;;;;;3.17;0.95;;;11.20;60.70;;;;;;6089818;29;20370;-80
2022/11/29 09:39:04;;;;;;;3.17;0.90;;;11.20;60.80;;;;;;6083253;29;20028;-80
2022/11/29 09:42:20;;;;;;;1.48;0.68;;;11.20;60.80;;;;;;6096235;29;20043;-80
2022/11/29 09:45:36;;;;;;;1.08;0.60;;;11.20;60.90;;;;;;6084274;29;20064;-79
2022/11/29 09:48:48;;;;;;;1.80;0.60;;;11.20;60.90;;;;;;6087091;29;20051;-80
2022/11/29 09:52:01;;;;;;;1.38;0.88;;;11.20;61.10;;;;;;6110803;29;20040;-81
2022/11/29 09:55:34;;;;;;;0.75;0.55;;;11.20;61.30;;;;;;6092463;29;20441;-80
2022/11/29 09:58:45;;;;;;;4.30;1.35;;;11.20;61.30;;;;;;6071549;29;20033;-79
2022/11/29 10:01:56;;;;;;;0.93;0.47;;;11.30;61.30;;;;;;6097202;29;20059;-81
2022/11/29 10:05:10;;;;;;;1.95;1.20;;;11.30;61.20;;;;;;6084657;29;20547;-81
2022/11/29 10:08:27;;;;;;;1.95;1.00;;;11.30;61.30;;;;;;6094525;29;20034;-79
2022/11/29 10:11:59;;;;;;;3.47;0.85;;;11.30;61.10;;;;;;6093317;28;20423;-81
2022/11/29 10:15:09;;;;;;;0.75;0.68;;;11.30;61.20;;;;;;6093779;29;20111;-80
2022/11/29 10:18:21;;;;;;;1.52;0.70;;;11.30;61.20;;;;;;6097484;29;20071;-80
2022/11/29 10:21:28;;;;;;;2.40;0.63;;;11.40;61.00;;;;;;6079793;29;20477;-78
2022/11/29 10:24:31;;;;;;;0.55;0.30;;;11.40;60.90;;;;;;6092210;29;20047;-80
2022/11/29 10:27:34;;;;;;;1.65;0.50;;;11.50;60.90;;;;;;6083927;29;20055;-81
2022/11/29 10:30:36;;;;;;;1.02;0.55;;;11.50;60.80;;;;;;6096890;29;20037;-81
2022/11/29 10:33:39;;;;;;;1.75;0.68;;;11.60;60.80;;;;;;6111611;29;20036;-81
2022/11/29 10:36:47;;;;;;;0.63;0.40;;;11.70;60.70;;;;;;6103007;29;20050;-80
2022/11/29 10:40:03;;;;;;;0.50;0.50;;;11.80;60.60;;;;;;6087503;29;20075;-80
2022/11/29 10:43:04;;;;;;;0.38;0.38;;;11.80;60.30;;;;;;6101112;29;20048;-80
2022/11/29 10:46:13;;;;;;;1.05;0.60;;;11.80;60.20;;;;;;6083255;29;20387;-80
2022/11/29 10:49:17;;;;;;;0.90;0.40;;;11.80;60.10;;;;;;6086081;29;20132;-80
2022/11/29 10:52:22;;;;;;;0.45;0.32;;;11.80;60.00;;;;;;6091644;29;20059;-80
2022/11/29 10:55:25;;;;;;;4.03;0.75;;;11.80;59.90;;;;;;6095480;29;20037;-80
2022/11/29 10:58:28;;;;;;;4.97;0.60;;;11.90;59.80;;;;;;6108159;29;20040;-81
2022/11/29 11:01:32;;;;;;;2.72;0.57;;;11.90;59.80;;;;;;6090645;29;20119;-79
2022/11/29 11:04:42;;;;;;;1.38;0.75;;;12.00;59.70;;;;;;6097166;29;20462;-81
2022/11/29 11:07:44;;;;;;;3.63;0.80;;;12.10;59.60;;;;;;6076656;29;20458;-79
2022/11/29 11:10:52;;;;;;;2.25;0.50;;;12.10;59.60;;;;;;6093449;29;20039;-81
2022/11/29 11:14:00;;;;;;;0.80;0.40;;;12.10;59.40;;;;;;6093406;29;20036;-81
2022/11/29 11:17:31;;;;;;;1.13;0.60;;;12.20;59.30;;;;;;6098047;29;20119;-81
2022/11/29 11:20:39;;;;;;;0.50;0.22;;;12.20;59.20;;;;;;6084835;29;21018;-80
2022/11/29 11:23:54;;;;;;;;;;;12.20;59.10;;;;;;6073459;29;20049;-80
2022/11/29 11:26:56;;;;;;;1.35;0.63;;;12.20;59.00;;;;;;6071198;29;19923;-79
2022/11/29 11:29:59;;;;;;;1.10;0.68;;;12.30;59.00;;;;;;6054229;29;20040;-81
2022/11/29 11:33:18;;;;;;;2.08;1.20;;;12.30;59.00;;;;;;6094785;29;20048;-81
2022/11/29 11:36:19;;;;;;;3.65;2.05;;;12.40;59.00;;;;;;6080141;29;20123;-81
2022/11/29 11:39:22;;;;;;;3.05;1.30;;;12.40;58.90;;;;;;6081063;29;20032;-81
2022/11/29 11:42:37;;;;;;;3.47;2.20;;;12.40;59.00;;;;;;6087918;29;20048;-82
2022/11/29 11:45:38;;;;;;;4.78;2.05;;;12.50;59.20;;;;;;6084556;29;20164;-81
2022/11/29 11:48:41;;;;;;;6.50;3.15;;;12.50;59.10;;;;;;6070628;29;20066;-80
2022/11/29 11:51:42;;;;;;;6.70;3.67;;;12.60;59.20;;;;;;6079437;29;20183;-82
2022/11/29 11:54:48;;;;;;;9.38;4.25;;;12.60;59.30;;;;;;6092857;29;20043;-81
2022/11/29 11:58:04;;;;;;;7.80;4.05;;;12.70;59.30;;;;;;6065283;29;20136;-81
2022/11/29 12:01:11;;;;;;;7.85;3.95;;;12.70;59.40;;;;;;6072261;29;20104;-82
2022/11/29 12:04:19;;;;;;;2.72;0.93;;;12.70;59.50;;;;;;6089209;29;20127;-81
2022/11/29 12:07:28;;;;;;;2.47;1.35;;;12.60;59.50;;;;;;6097032;29;20056;-81
2022/11/29 12:10:33;;;;;;;1.75;0.80;;;12.70;59.10;;;;;;6083729;29;20438;-81
2022/11/29 12:13:38;;;;;;;3.50;2.10;;;12.60;59.00;;;;;;6087941;29;20051;-81
2022/11/29 12:16:40;;;;;;;4.43;2.20;;;12.60;59.10;;;;;;6083535;29;20127;-81
2022/11/29 12:19:51;;;;;;;5.65;2.83;;;12.60;59.20;;;;;;6083754;28;20036;-80
2022/11/29 12:22:52;;;;;;;8.57;3.42;;;12.60;59.30;;;;;;6087105;29;20386;-81
2022/11/29 12:26:04;;;;;;;4.38;2.40;;;12.70;59.50;;;;;;6096745;29;20040;-82
2022/11/29 12:29:16;;;;;;;5.10;2.47;;;12.70;59.50;;;;;;6076000;29;20204;-80
2022/11/29 12:32:38;;;;;;;9.15;3.33;;;12.70;59.60;;;;;;6090529;29;20131;-81
2022/11/29 12:35:55;;;;;;;4.38;2.20;;;12.70;59.80;;;;;;6086489;29;20043;-81
2022/11/29 12:39:17;;;;;;;4.35;2.40;;;12.80;59.90;;;;;;6080643;29;20138;-81
2022/11/29 12:42:26;;;;;;;3.58;2.35;;;12.90;59.90;;;;;;6099936;29;20036;-80
2022/11/29 12:45:56;;;;;;;3.70;2.05;;;12.90;59.80;;;;;;6089978;29;20091;-81
2022/11/29 12:49:03;;;;;;;6.57;2.63;;;12.90;59.80;;;;;;6079444;29;20064;-80
2022/11/29 12:52:13;;;;;;;4.93;2.40;;;12.90;59.90;;;;;;6070561;29;20040;-82
2022/11/29 12:55:30;;;;;;;28.08;9.93;;;12.90;59.90;;;;;;6090767;29;20518;-80
2022/11/29 12:59:04;;;;;;;2.97;1.60;;;13.10;59.90;;;;;;6095793;29;20104;-81
2022/11/29 13:02:24;;;;;;;7.57;2.45;;;13.10;59.80;;;;;;6085397;29;20043;-80
2022/11/29 13:05:28;;;;;;;3.42;1.92;;;13.20;59.60;;;;;;6081203;29;20076;-80
2022/11/29 13:08:35;;;;;;;3.88;1.85;;;13.20;59.40;;;;;;6060008;29;20036;-79
2022/11/29 13:11:53;;;;;;;6.03;1.85;;;13.30;59.40;;;;;;6095569;29;20119;-80
2022/11/29 13:15:01;;;;;;;6.28;2.40;;;13.40;59.30;;;;;;6102419;29;20194;-81
2022/11/29 13:18:15;;;;;;;;;;;13.30;59.30;;;;;;6107607;29;20502;-80
2022/11/29 13:21:27;;;;;;;5.63;3.05;;;13.30;59.20;;;;;;6105645;29;20265;-80
2022/11/29 13:24:36;;;;;;;15.32;2.42;;;13.40;59.30;;;;;;6094130;29;20473;-80
2022/11/29 13:27:42;;;;;;;2.83;2.00;;;13.40;59.30;;;;;;6090893;29;20080;-79
2022/11/29 13:30:44;;;;;;;4.28;2.25;;;13.50;59.30;;;;;;6101239;29;20524;-79
2022/11/29 13:33:52;;;;;;;5.40;2.88;;;13.50;59.20;;;;;;6090455;29;20039;-80
2022/11/29 13:36:59;;;;;;;2.33;1.67;;;13.60;59.20;;;;;;6092384;29;20044;-80
2022/11/29 13:40:22;;;;;;;3.03;1.85;;;13.60;59.10;;;;;;6082582;29;20381;-80
2022/11/29 13:43:35;;;;;;;3.65;1.40;;;13.60;59.00;;;;;;6081638;29;20055;-80
2022/11/29 13:46:42;;;;;;;1.80;1.17;;;13.60;58.80;;;;;;6083034;29;21028;-80
2022/11/29 13:50:01;;;;;;;5.28;1.52;;;13.60;58.70;;;;;;6101181;29;20040;-81
2022/11/29 13:53:10;;;;;;;2.88;1.40;;;13.50;58.70;;;;;;6088837;29;20036;-79
2022/11/29 13:56:28;;;;;;;2.22;0.55;;;13.50;58.60;;;;;;6082439;29;20040;-79
2022/11/29 13:59:32;;;;;;;0.95;0.70;;;13.40;58.50;;;;;;6083290;29;20032;-80
2022/11/29 14:02:34;;;;;;;0.50;0.50;;;13.40;58.30;;;;;;6087846;29;20485;-81
2022/11/29 14:05:37;;;;;;;1.00;0.77;;;13.30;57.90;;;;;;6084005;29;20438;-80
2022/11/29 14:08:42;;;;;;;2.58;0.70;;;13.20;57.90;;;;;;6095056;29;20036;-81
2022/11/29 14:11:48;;;;;;;1.52;1.00;;;13.10;57.90;;;;;;6095130;29;20046;-81
2022/11/29 14:15:17;;;;;;;2.60;1.10;;;13.10;57.90;;;;;;6090903;29;20143;-80
2022/11/29 14:18:39;;;;;;;3.50;1.73;;;13.00;58.00;;;;;;6096656;29;20359;-80
2022/11/29 14:22:16;;;;;;;0.93;0.70;;;12.90;58.00;;;;;;6089263;28;20279;-80
2022/11/29 14:25:24;;;;;;;0.75;0.50;;;12.90;58.70;;;;;;6074063;29;20059;-81
2022/11/29 14:28:38;;;;;;;0.88;0.82;;;12.80;58.10;;;;;;6096799;29;20139;-80
2022/11/29 14:31:49;;;;;;;0.38;0.38;;;12.70;58.20;;;;;;6087450;29;20052;-81
2022/11/29 14:35:10;;;;;;;1.15;0.60;;;12.60;58.30;;;;;;6086550;29;20052;-80
2022/11/29 14:38:25;;;;;;;1.60;0.63;;;12.70;58.60;;;;;;6078158;29;20047;-79
2022/11/29 14:42:00;;;;;;;1.20;0.80;;;12.70;58.50;;;;;;6059265;29;20052;-80
2022/11/29 14:45:03;;;;;;;1.23;0.77;;;12.70;58.60;;;;;;6074547;29;20045;-80
2022/11/29 14:48:22;;;;;;;0.57;0.55;;;12.70;58.60;;;;;;6076722;29;20044;-81
2022/11/29 14:51:27;;;;;;;0.95;0.45;;;12.60;58.60;;;;;;6079522;29;20052;-80
2022/11/29 14:54:28;;;;;;;3.13;0.50;;;12.60;58.70;;;;;;6082448;29;20044;-80
2022/11/29 14:57:51;;;;;;;0.73;0.63;;;12.60;58.70;;;;;;6057953;29;20036;-81
2022/11/29 15:00:58;;;;;;;5.00;1.00;;;12.50;58.80;;;;;;6095224;29;20062;-81
2022/11/29 15:04:02;;;;;;;0.60;0.60;;;12.50;58.80;;;;;;6056576;29;20041;-81
2022/11/29 15:07:04;;;;;;;2.58;0.65;;;12.50;58.90;;;;;;6074005;29;20063;-80
2022/11/29 15:10:17;;;;;;;1.08;0.70;;;12.40;58.90;;;;;;6056067;29;20141;-80
2022/11/29 15:13:26;;;;;;;2.00;1.02;;;12.30;59.10;;;;;;6095764;29;20044;-80
2022/11/29 15:16:27;;;;;;;0.98;0.70;;;12.30;59.30;;;;;;6068880;29;20475;-80
2022/11/29 15:20:00;;;;;;;1.58;0.85;;;12.30;59.40;;;;;;6090587;28;20054;-80
2022/11/29 15:23:08;;;;;;;1.38;0.60;;;12.30;59.60;;;;;;6088818;29;20040;-80
2022/11/29 15:26:19;;;;;;;1.77;0.80;;;12.20;59.60;;;;;;6083876;29;20052;-80
2022/11/29 15:29:20;;;;;;;0.73;0.50;;;12.20;59.70;;;;;;6068503;29;20040;-80
2022/11/29 15:32:31;;;;;;;1.92;0.80;;;12.20;59.80;;;;;;6073730;29;20064;-80
2022/11/29 15:35:34;;;;;;;1.40;0.57;;;12.10;59.90;;;;;;6085179;29;20081;-81
2022/11/29 15:38:50;;;;;;;3.05;1.15;;;12.10;60.00;;;;;;6084057;29;20044;-82
2022/11/29 15:41:51;;;;;;;0.80;0.60;;;12.10;60.00;;;;;;6057857;29;20127;-80
2022/11/29 15:44:52;;;;;;;1.10;0.80;;;12.00;60.00;;;;;;6081725;29;20050;-80
2022/11/29 15:47:54;;;;;;;2.08;0.90;;;12.00;60.10;;;;;;6080804;29;20477;-79
2022/11/29 15:51:36;;;;;;;1.05;0.73;;;12.00;60.30;;;;;;6069233;29;20049;-81
2022/11/29 15:54:43;;;;;;;1.45;0.55;;;12.00;60.50;;;;;;6073867;29;20036;-80
2022/11/29 15:57:48;;;;;;;0.63;0.60;;;12.00;60.40;;;;;;6057589;29;20036;-81
2022/11/29 16:00:51;;;;;;;1.02;0.80;;;12.00;60.30;;;;;;6077480;29;20068;-80
2022/11/29 16:03:54;;;;;;;1.25;0.70;;;12.00;60.30;;;;;;6093298;29;20037;-81
2022/11/29 16:06:56;;;;;;;6.45;1.40;;;12.10;60.40;;;;;;6098607;29;20127;-80
2022/11/29 16:10:11;;;;;;;1.52;0.90;;;12.10;60.40;;;;;;6084288;29;20036;-80
2022/11/29 16:13:32;;;;;;;4.03;1.55;;;12.10;60.50;;;;;;6082457;29;20044;-81
2022/11/29 16:16:34;;;;;;;4.47;1.67;;;12.10;60.40;;;;;;6093350;29;20047;-81
2022/11/29 16:19:36;;;;;;;1.58;0.70;;;12.10;60.40;;;;;;6094313;29;20028;-82
2022/11/29 16:22:37;;;;;;;3.72;1.65;;;12.10;60.40;;;;;;6087563;29;20387;-80
2022/11/29 16:26:01;;;;;;;2.22;1.00;;;12.10;60.30;;;;;;6095340;29;20083;-81
2022/11/29 16:29:03;;;;;;;4.05;2.05;;;12.10;60.40;;;;;;6096277;29;20142;-80
2022/11/29 16:32:23;;;;;;;2.78;1.55;;;12.20;60.50;;;;;;6079695;29;20036;-81